createdAt,value
2023-05-14T00:00:45.501Z,23.40
2023-05-14T00:03:13.898Z,23.10
2023-05-14T00:05:42.202Z,23.00
2023-05-14T00:08:10.459Z,22.80
2023-05-14T00:10:38.602Z,22.70
2023-05-14T00:13:06.791Z,22.70
2023-05-14T00:15:34.994Z,22.80
2023-05-14T00:18:07.180Z,22.80
2023-05-14T00:20:35.532Z,23.10
2023-05-14T00:23:03.692Z,23.20
2023-05-14T00:25:32.311Z,23.10
2023-05-14T00:28:00.503Z,22.80
2023-05-14T00:30:28.654Z,22.90
2023-05-14T00:32:56.950Z,23.10
2023-05-14T00:35:45.217Z,23.00
2023-05-14T00:38:33.687Z,23.30
2023-05-14T00:41:02.019Z,23.50
2023-05-14T00:43:33.867Z,23.10
2023-05-14T00:46:02.355Z,22.90
2023-05-14T00:48:30.987Z,23.10
2023-05-14T00:51:00.710Z,23.10
2023-05-14T00:53:29.304Z,22.90
2023-05-14T00:55:58.407Z,22.70
2023-05-14T00:58:26.881Z,22.60
2023-05-14T01:00:55.132Z,22.50
2023-05-14T01:03:23.501Z,22.50
2023-05-14T01:06:00.906Z,22.50
2023-05-14T01:08:37.792Z,22.40
2023-05-14T01:11:12.373Z,22.30
2023-05-14T01:13:49.691Z,22.50
2023-05-14T01:16:20.274Z,22.70
2023-05-14T01:18:51.668Z,22.30
2023-05-14T01:21:46.463Z,22.60
2023-05-14T01:24:15.057Z,22.70
2023-05-14T01:26:43.546Z,22.50
2023-05-14T01:29:20.814Z,22.10
2023-05-14T01:31:52.008Z,22.50
2023-05-14T01:34:23.325Z,22.70
2023-05-14T01:36:57.022Z,22.20
2023-05-14T01:39:27.648Z,22.30
2023-05-14T01:41:56.766Z,22.10
2023-05-14T01:44:25.424Z,22.50
2023-05-14T01:46:57.028Z,22.60
2023-05-14T01:49:24.980Z,22.60
2023-05-14T01:51:54.309Z,22.70
2023-05-14T01:54:22.196Z,22.90
2023-05-14T01:56:51.583Z,22.90
2023-05-14T01:59:19.492Z,22.90
2023-05-14T02:01:47.404Z,22.80
2023-05-14T02:04:15.494Z,22.80
2023-05-14T02:06:43.481Z,22.70
2023-05-14T02:09:12.985Z,22.90
2023-05-14T02:11:40.884Z,22.70
2023-05-14T02:14:08.794Z,22.80
2023-05-14T02:16:36.740Z,22.80
2023-05-14T02:19:04.723Z,22.80
2023-05-14T02:21:32.883Z,22.50
2023-05-14T02:24:00.753Z,22.60
2023-05-14T02:26:29.951Z,22.60
2023-05-14T02:28:58.283Z,22.70
2023-05-14T02:31:26.911Z,22.80
2023-05-14T02:33:54.931Z,22.50
2023-05-14T02:36:22.838Z,22.70
2023-05-14T02:38:50.714Z,22.50
2023-05-14T02:41:18.602Z,22.50
2023-05-14T02:43:47.857Z,22.50
2023-05-14T02:46:15.930Z,22.00
2023-05-14T02:48:43.901Z,22.20
2023-05-14T02:51:12.852Z,22.30
2023-05-14T02:53:40.773Z,22.50
2023-05-14T02:56:08.955Z,22.60
2023-05-14T02:58:36.832Z,22.70
2023-05-14T03:01:06.329Z,22.40
2023-05-14T03:03:36.437Z,22.20
2023-05-14T03:06:04.927Z,22.10
2023-05-14T03:08:32.987Z,22.00
2023-05-14T03:11:01.834Z,22.20
2023-05-14T03:13:29.715Z,22.10
2023-05-14T03:15:57.663Z,22.30
2023-05-14T03:18:28.230Z,22.30
2023-05-14T03:20:56.159Z,22.10
2023-05-14T03:23:25.125Z,22.30
2023-05-14T03:25:53.423Z,22.40
2023-05-14T03:28:21.381Z,22.60
2023-05-14T03:30:49.333Z,22.60
2023-05-14T03:33:17.245Z,22.90
2023-05-14T03:35:46.518Z,23.00
2023-05-14T03:38:14.427Z,23.10
2023-05-14T03:40:42.406Z,23.20
2023-05-14T03:43:11.307Z,23.40
2023-05-14T03:45:39.520Z,23.50
2023-05-14T03:48:08.235Z,23.80
2023-05-14T03:50:36.595Z,23.80
2023-05-14T03:53:05.829Z,23.60
2023-05-14T03:55:33.743Z,23.80
2023-05-14T03:58:01.989Z,24.00
2023-05-14T04:00:30.038Z,24.30
2023-05-14T04:02:58.159Z,24.50
2023-05-14T04:05:26.452Z,24.70
2023-05-14T04:07:54.349Z,24.90
2023-05-14T04:10:23.677Z,25.00
2023-05-14T04:12:52.047Z,25.20
2023-05-14T04:15:20.286Z,25.30
2023-05-14T04:17:48.190Z,25.30
2023-05-14T04:20:16.209Z,25.40
2023-05-14T04:22:44.103Z,25.50
2023-05-14T04:25:12.102Z,25.50
2023-05-14T04:27:41.342Z,25.60
2023-05-14T04:30:10.690Z,25.70
2023-05-14T04:32:39.279Z,25.80
2023-05-14T04:35:08.980Z,25.80
2023-05-14T04:37:37.085Z,25.90
2023-05-14T04:40:07.063Z,26.00
2023-05-14T04:42:34.974Z,26.10
2023-05-14T04:45:05.295Z,26.10
2023-05-14T04:47:33.639Z,26.10
2023-05-14T04:50:01.826Z,26.30
2023-05-14T04:52:29.804Z,26.40
2023-05-14T04:54:57.699Z,26.50
2023-05-14T04:57:25.633Z,26.50
2023-05-14T04:59:53.551Z,26.70
2023-05-14T05:02:22.770Z,26.40
2023-05-14T05:04:50.648Z,26.60
2023-05-14T05:07:18.529Z,26.40
2023-05-14T05:09:46.420Z,26.70
2023-05-14T05:12:14.282Z,26.90
2023-05-14T05:14:42.143Z,27.00
2023-05-14T05:17:10.070Z,27.10
2023-05-14T05:19:43.720Z,27.20
2023-05-14T05:22:12.409Z,27.10
2023-05-14T05:24:40.340Z,27.30
2023-05-14T05:27:08.221Z,27.40
2023-05-14T05:29:36.157Z,27.50
2023-05-14T05:32:04.322Z,27.60
2023-05-14T05:34:32.263Z,27.80
2023-05-14T05:37:01.544Z,27.70
2023-05-14T05:39:34.576Z,27.90
2023-05-14T05:42:03.099Z,27.90
2023-05-14T05:44:30.997Z,28.00
2023-05-14T05:46:58.979Z,28.00
2023-05-14T05:49:26.900Z,27.90
2023-05-14T05:51:54.852Z,28.10
2023-05-14T05:54:24.610Z,28.10
2023-05-14T05:56:52.539Z,28.00
2023-05-14T05:59:20.618Z,27.80
2023-05-14T06:01:48.511Z,27.90
2023-05-14T06:04:16.494Z,27.90
2023-05-14T06:06:44.400Z,28.10
2023-05-14T06:09:13.177Z,28.20
2023-05-14T06:11:42.388Z,28.10
2023-05-14T06:14:10.258Z,28.00
2023-05-14T06:16:38.253Z,28.20
2023-05-14T06:19:06.395Z,28.10
2023-05-14T06:21:34.393Z,28.30
2023-05-14T06:24:02.360Z,28.50
2023-05-14T06:26:30.287Z,28.40
2023-05-14T06:29:00.033Z,28.60
2023-05-14T06:31:27.946Z,28.40
2023-05-14T06:33:55.831Z,28.70
2023-05-14T06:36:23.720Z,28.80
2023-05-14T06:38:51.594Z,28.80
2023-05-14T06:41:19.479Z,28.80
2023-05-14T06:43:48.506Z,28.60
2023-05-14T06:46:17.814Z,28.70
2023-05-14T06:48:45.837Z,28.70
2023-05-14T06:51:14.150Z,28.80
2023-05-14T06:53:42.395Z,28.60
2023-05-14T06:56:10.265Z,28.30
2023-05-14T06:58:38.146Z,28.30
2023-05-14T07:01:09.159Z,28.30
2023-05-14T07:03:38.423Z,28.30
2023-05-14T07:06:07.654Z,28.40
2023-05-14T07:08:36.023Z,28.60
2023-05-14T07:11:04.176Z,28.50
2023-05-14T07:13:32.458Z,28.40
2023-05-14T07:16:00.423Z,28.70
2023-05-14T07:18:28.722Z,28.80
2023-05-14T07:20:57.966Z,28.80
2023-05-14T07:23:25.814Z,28.90
2023-05-14T07:25:53.700Z,28.60
2023-05-14T07:28:22.747Z,28.80
2023-05-14T07:30:50.767Z,28.80
2023-05-14T07:33:20.382Z,29.00
2023-05-14T07:35:51.234Z,28.90
2023-05-14T07:38:23.250Z,28.80
2023-05-14T07:40:51.225Z,29.10
2023-05-14T07:43:19.574Z,29.30
2023-05-14T07:45:48.935Z,29.20
2023-05-14T07:48:18.225Z,29.50
2023-05-14T07:50:47.832Z,29.70
2023-05-14T07:53:23.492Z,29.20
2023-05-14T07:55:53.298Z,29.60
2023-05-14T07:58:24.448Z,29.80
2023-05-14T08:00:55.844Z,29.60
2023-05-14T08:03:25.701Z,29.50
2023-05-14T08:05:53.814Z,29.70
2023-05-14T08:08:23.178Z,29.70
2023-05-14T08:10:53.143Z,29.60
2023-05-14T08:13:21.100Z,29.90
2023-05-14T08:15:50.517Z,30.10
2023-05-14T08:18:18.611Z,30.30
2023-05-14T08:20:46.974Z,30.30
2023-05-14T08:23:14.915Z,30.30
2023-05-14T08:25:42.842Z,29.90
2023-05-14T08:28:12.106Z,29.80
2023-05-14T08:30:42.201Z,30.10
2023-05-14T08:33:10.190Z,30.60
2023-05-14T08:35:40.479Z,30.70
2023-05-14T08:38:09.977Z,30.70
2023-05-14T08:40:38.078Z,30.90
2023-05-14T08:43:07.204Z,30.60
2023-05-14T08:45:37.982Z,30.90
2023-05-14T08:48:12.596Z,31.00
2023-05-14T08:50:47.287Z,31.10
2023-05-14T08:53:16.956Z,31.20
2023-05-14T08:55:46.795Z,31.10
2023-05-14T08:58:14.931Z,31.20
2023-05-14T09:00:44.249Z,31.30
2023-05-14T09:03:13.144Z,31.20
2023-05-14T09:05:42.952Z,31.10
2023-05-14T09:08:11.181Z,31.20
2023-05-14T09:10:40.239Z,31.40
2023-05-14T09:13:10.126Z,31.00
2023-05-14T09:15:41.277Z,30.90
2023-05-14T09:18:11.155Z,31.20
2023-05-14T09:20:39.903Z,31.00
2023-05-14T09:23:09.280Z,31.00
2023-05-14T09:25:38.275Z,31.20
2023-05-14T09:28:09.090Z,31.10
2023-05-14T09:30:37.097Z,31.00
2023-05-14T09:33:07.466Z,31.30
2023-05-14T09:35:41.394Z,31.50
2023-05-14T09:38:09.403Z,31.50
2023-05-14T09:40:37.980Z,31.50
2023-05-14T09:43:06.718Z,31.70
2023-05-14T09:45:36.196Z,31.60
2023-05-14T09:48:04.505Z,31.70
2023-05-14T09:50:43.072Z,31.60
2023-05-14T09:53:11.074Z,31.60
2023-05-14T09:55:42.989Z,31.60
2023-05-14T09:58:11.030Z,31.20
2023-05-14T10:00:39.525Z,31.30
2023-05-14T10:03:08.921Z,31.60
2023-05-14T10:05:39.796Z,31.60
2023-05-14T10:08:16.572Z,31.60
2023-05-14T10:10:44.555Z,31.70
2023-05-14T10:13:19.275Z,31.80
2023-05-14T10:15:50.019Z,31.70
2023-05-14T10:18:24.028Z,31.50
2023-05-14T10:21:11.602Z,31.40
2023-05-14T10:23:41.884Z,31.60
2023-05-14T10:26:11.802Z,31.70
2023-05-14T10:28:41.030Z,31.60
2023-05-14T10:31:10.802Z,31.70
2023-05-14T10:33:48.294Z,31.80
2023-05-14T10:36:18.954Z,31.90
2023-05-14T10:38:55.807Z,32.10
2023-05-14T10:41:24.949Z,32.20
2023-05-14T10:43:53.435Z,32.20
2023-05-14T10:46:21.747Z,31.80
2023-05-14T10:48:51.674Z,32.00
2023-05-14T10:51:22.953Z,32.10
2023-05-14T10:53:51.055Z,31.90
2023-05-14T10:56:21.467Z,32.10
2023-05-14T10:58:51.319Z,32.40
2023-05-14T11:01:25.024Z,32.00
2023-05-14T11:03:57.054Z,32.30
2023-05-14T11:06:29.653Z,32.40
2023-05-14T11:09:03.827Z,32.40
2023-05-14T11:11:32.194Z,32.50
2023-05-14T11:14:00.547Z,32.30
2023-05-14T11:16:30.864Z,32.50
2023-05-14T11:19:05.696Z,32.40
2023-05-14T11:21:35.094Z,32.40
2023-05-14T11:24:05.259Z,32.30
2023-05-14T11:26:33.830Z,31.90
2023-05-14T11:29:02.127Z,32.10
2023-05-14T11:31:31.112Z,32.10
2023-05-14T11:34:00.360Z,32.10
2023-05-14T11:36:29.393Z,32.20
2023-05-14T11:38:59.287Z,32.10
2023-05-14T11:41:31.067Z,32.30
2023-05-14T11:44:00.957Z,32.40
2023-05-14T11:46:31.239Z,32.10
2023-05-14T11:49:00.351Z,32.20
2023-05-14T11:51:31.886Z,32.20
2023-05-14T11:54:02.691Z,32.40
2023-05-14T11:56:32.693Z,32.00
2023-05-14T11:59:00.953Z,32.10
2023-05-14T12:01:34.271Z,32.20
2023-05-14T12:04:02.679Z,31.90
2023-05-14T12:06:32.976Z,31.90
2023-05-14T12:09:08.676Z,32.00
2023-05-14T12:11:38.425Z,32.30
2023-05-14T12:14:13.080Z,32.40
2023-05-14T12:16:43.319Z,32.30
2023-05-14T12:19:12.555Z,32.10
2023-05-14T12:21:41.499Z,32.20
2023-05-14T12:24:15.159Z,32.50
2023-05-14T12:26:45.912Z,32.50
2023-05-14T12:29:16.321Z,32.50
2023-05-14T12:31:48.654Z,32.60
2023-05-14T12:34:22.091Z,32.80
2023-05-14T12:36:50.218Z,32.90
2023-05-14T12:39:21.097Z,33.00
2023-05-14T12:41:56.722Z,32.90
2023-05-14T12:44:25.777Z,32.70
2023-05-14T12:46:55.028Z,32.50
2023-05-14T12:49:25.576Z,32.70
2023-05-14T12:52:07.956Z,32.90
2023-05-14T12:54:44.368Z,32.70
2023-05-14T12:57:12.979Z,32.70
2023-05-14T12:59:41.269Z,32.70
2023-05-14T13:02:12.176Z,32.70
2023-05-14T13:04:44.563Z,32.70
2023-05-14T13:07:12.842Z,32.60
2023-05-14T13:09:42.882Z,32.30
2023-05-14T13:12:13.657Z,32.70
2023-05-14T13:14:43.967Z,32.70
2023-05-14T13:17:14.319Z,32.70
2023-05-14T13:19:46.238Z,32.70
2023-05-14T13:22:14.341Z,32.80
2023-05-14T13:24:43.834Z,32.90
2023-05-14T13:27:13.973Z,32.50
2023-05-14T13:29:42.424Z,32.60
2023-05-14T13:32:11.549Z,32.60
2023-05-14T13:34:40.331Z,32.80
2023-05-14T13:37:11.880Z,32.50
2023-05-14T13:39:42.080Z,32.70
2023-05-14T13:42:09.969Z,32.90
2023-05-14T13:44:40.423Z,32.90
2023-05-14T13:47:08.750Z,32.70
2023-05-14T13:49:40.861Z,32.80
2023-05-14T13:52:09.580Z,32.40
2023-05-14T13:54:37.987Z,32.10
2023-05-14T13:57:08.628Z,32.30
2023-05-14T13:59:37.846Z,32.10
2023-05-14T14:02:10.883Z,32.20
2023-05-14T14:04:39.699Z,32.10
2023-05-14T14:09:52.213Z,32.10
2023-05-14T14:12:20.261Z,32.20
2023-05-14T14:14:51.220Z,32.20
2023-05-14T14:17:23.277Z,32.10
2023-05-14T14:19:52.818Z,32.30
2023-05-14T14:22:27.132Z,32.10
2023-05-14T14:24:57.413Z,32.30
2023-05-14T14:27:31.013Z,32.30
2023-05-14T14:29:58.911Z,32.00
2023-05-14T14:32:28.747Z,32.00
2023-05-14T14:34:56.920Z,31.80
2023-05-14T14:37:25.169Z,31.90
2023-05-14T14:39:55.894Z,31.90
2023-05-14T14:42:25.268Z,31.90
2023-05-14T14:44:53.255Z,32.00
2023-05-14T14:47:21.485Z,32.00
2023-05-14T14:49:50.687Z,32.00
2023-05-14T14:52:18.915Z,31.90
2023-05-14T14:54:46.858Z,31.90
2023-05-14T14:57:15.106Z,31.80
2023-05-14T14:59:49.278Z,31.90
2023-05-14T15:02:20.684Z,32.00
2023-05-14T15:04:51.454Z,32.00
2023-05-14T15:07:20.436Z,31.90
2023-05-14T15:09:51.680Z,31.90
2023-05-14T15:12:22.486Z,31.70
2023-05-14T15:14:50.580Z,31.80
2023-05-14T15:17:20.629Z,31.80
2023-05-14T15:19:50.315Z,31.50
2023-05-14T15:22:18.470Z,31.50
2023-05-14T15:24:51.205Z,31.50
2023-05-14T15:27:21.689Z,31.40
2023-05-14T15:29:50.244Z,31.40
2023-05-14T15:32:19.572Z,31.40
2023-05-14T15:34:55.423Z,31.50
2023-05-14T15:37:25.340Z,31.40
2023-05-14T15:39:54.900Z,31.20
2023-05-14T15:42:23.348Z,31.30
2023-05-14T15:44:54.383Z,31.40
2023-05-14T15:47:22.769Z,31.30
2023-05-14T15:49:52.119Z,31.30
2023-05-14T15:52:21.126Z,31.40
2023-05-14T15:54:55.002Z,31.40
2023-05-14T15:57:24.721Z,31.50
2023-05-14T15:59:53.179Z,31.60
2023-05-14T16:02:22.212Z,31.50
2023-05-14T16:04:53.557Z,31.50
2023-05-14T16:07:22.866Z,31.40
2023-05-14T16:09:52.281Z,31.30
2023-05-14T16:12:22.695Z,31.30
2023-05-14T16:14:54.598Z,31.20
2023-05-14T16:17:25.707Z,31.20
2023-05-14T16:19:56.235Z,31.20
2023-05-14T16:22:25.183Z,31.30
2023-05-14T16:24:55.052Z,31.30
2023-05-14T16:27:23.499Z,31.30
2023-05-14T16:29:51.783Z,31.40
2023-05-14T16:32:20.283Z,31.30
2023-05-14T16:34:49.871Z,31.20
2023-05-14T16:37:19.829Z,31.30
2023-05-14T16:39:48.075Z,31.30
2023-05-14T16:42:20.262Z,31.40
2023-05-14T16:44:50.561Z,31.40
2023-05-14T16:47:18.750Z,31.40
2023-05-14T16:49:47.122Z,31.50
2023-05-14T16:52:15.308Z,31.60
2023-05-14T16:54:43.467Z,31.50
2023-05-14T16:57:11.842Z,31.60
2023-05-14T16:59:41.427Z,31.50
2023-05-14T17:02:10.051Z,31.50
2023-05-14T17:04:41.872Z,31.40
2023-05-14T17:07:10.290Z,31.40
2023-05-14T17:09:38.617Z,31.50
2023-05-14T17:12:10.759Z,31.40
2023-05-14T17:14:38.977Z,31.40
2023-05-14T17:17:13.474Z,31.40
2023-05-14T17:19:42.291Z,31.40
2023-05-14T17:22:10.947Z,31.40
2023-05-14T17:24:39.247Z,31.30
2023-05-14T17:27:07.749Z,31.30
2023-05-14T17:29:35.884Z,31.30
2023-05-14T17:32:04.826Z,31.20
2023-05-14T17:34:34.534Z,31.20
2023-05-14T17:37:02.706Z,31.20
2023-05-14T17:39:30.896Z,31.20
2023-05-14T17:41:59.051Z,31.30
2023-05-14T17:44:27.190Z,31.30
2023-05-14T17:46:57.768Z,31.20
2023-05-14T17:49:26.019Z,31.20
2023-05-14T17:51:58.644Z,31.20
2023-05-14T17:54:27.072Z,31.10
2023-05-14T17:56:57.057Z,31.10
2023-05-14T17:59:25.214Z,31.20
2023-05-14T18:01:54.351Z,31.20
2023-05-14T18:04:22.653Z,31.20
2023-05-14T18:06:50.906Z,31.10
2023-05-14T18:09:21.101Z,31.10
2023-05-14T18:11:49.320Z,30.50
2023-05-14T18:14:18.550Z,30.30
2023-05-14T18:16:46.860Z,30.00
2023-05-14T18:19:15.577Z,29.90
2023-05-14T18:21:46.540Z,30.00
2023-05-14T18:24:14.764Z,29.30
2023-05-14T18:26:44.354Z,29.10
2023-05-14T18:29:12.561Z,29.20
2023-05-14T18:31:40.744Z,28.80
2023-05-14T18:34:11.929Z,29.00
2023-05-14T18:36:42.740Z,29.30
2023-05-14T18:39:11.007Z,29.40
2023-05-14T18:41:39.205Z,29.20
2023-05-14T18:44:08.973Z,28.70
2023-05-14T18:46:37.283Z,28.40
2023-05-14T18:49:05.423Z,28.70
2023-05-14T18:51:33.614Z,28.80
2023-05-14T18:54:01.799Z,28.80
2023-05-14T18:56:30.175Z,28.50
2023-05-14T18:58:58.315Z,28.60
2023-05-14T19:01:28.114Z,28.80
2023-05-14T19:03:56.658Z,28.80
2023-05-14T19:06:25.627Z,28.50
2023-05-14T19:08:54.062Z,28.00
2023-05-14T19:11:24.901Z,27.80
2023-05-14T19:13:53.228Z,27.60
2023-05-14T19:16:21.474Z,27.50
2023-05-14T19:18:51.362Z,27.70
2023-05-14T19:21:19.569Z,27.90
2023-05-14T19:23:47.790Z,27.80
2023-05-14T19:26:15.958Z,27.70
2023-05-14T19:28:44.099Z,27.80
2023-05-14T19:31:12.264Z,27.30
2023-05-14T19:33:40.428Z,27.40
2023-05-14T19:36:10.032Z,27.40
2023-05-14T19:38:41.328Z,27.40
2023-05-14T19:41:09.558Z,27.70
2023-05-14T19:43:40.426Z,27.30
2023-05-14T19:46:11.771Z,27.50
2023-05-14T19:48:39.983Z,27.60
2023-05-14T19:51:09.684Z,27.50
2023-05-14T19:53:37.846Z,27.60
2023-05-14T19:56:06.493Z,27.10
2023-05-14T19:58:34.708Z,27.10
2023-05-14T20:01:02.876Z,27.40
2023-05-14T20:03:31.158Z,27.20
2023-05-14T20:05:59.410Z,27.60
2023-05-14T20:08:30.966Z,27.80
2023-05-14T20:10:59.226Z,27.90
2023-05-14T20:13:27.353Z,27.80
2023-05-14T20:15:56.045Z,27.90
2023-05-14T20:18:24.239Z,27.60
2023-05-14T20:20:52.897Z,27.80
2023-05-14T20:23:21.333Z,27.90
2023-05-14T20:25:52.091Z,27.70
2023-05-14T20:28:20.246Z,27.70
2023-05-14T20:30:48.428Z,27.80
2023-05-14T20:33:16.899Z,27.90
2023-05-14T20:35:46.610Z,28.10
2023-05-14T20:38:18.244Z,28.00
2023-05-14T20:40:46.420Z,27.70
2023-05-14T20:43:16.139Z,27.90
2023-05-14T20:45:44.340Z,27.90
2023-05-14T20:48:16.109Z,28.00
2023-05-14T20:50:44.502Z,28.00
2023-05-14T20:53:12.693Z,28.00
2023-05-14T20:55:41.331Z,27.90
2023-05-14T20:58:09.519Z,27.90
2023-05-14T21:00:39.158Z,27.90
2023-05-14T21:03:07.493Z,27.80
2023-05-14T21:05:37.956Z,27.50
2023-05-14T21:08:06.504Z,27.30
2023-05-14T21:10:34.687Z,27.30
2023-05-14T21:13:03.621Z,27.20
2023-05-14T21:15:32.609Z,26.90
2023-05-14T21:18:03.250Z,26.70
2023-05-14T21:20:31.475Z,26.60
2023-05-14T21:22:59.679Z,26.60
2023-05-14T21:25:31.012Z,26.50
2023-05-14T21:27:59.203Z,26.30
2023-05-14T21:30:27.597Z,26.30
2023-05-14T21:32:56.067Z,26.10
2023-05-14T21:35:27.831Z,26.00
2023-05-14T21:37:57.155Z,25.80
2023-05-14T21:40:25.395Z,25.50
2023-05-14T21:42:53.781Z,25.50
2023-05-14T21:45:23.475Z,25.50
2023-05-14T21:47:52.105Z,25.40
2023-05-14T21:50:20.457Z,25.30
2023-05-14T21:52:50.014Z,25.30
2023-05-14T21:55:18.349Z,25.20
2023-05-14T21:57:46.614Z,25.30
2023-05-14T22:00:23.168Z,25.40
2023-05-14T22:02:52.745Z,25.30
2023-05-14T22:05:21.149Z,25.40
2023-05-14T22:07:51.957Z,25.30
2023-05-14T22:10:20.137Z,25.20
2023-05-14T22:12:50.681Z,25.30
2023-05-14T22:15:18.831Z,25.30
2023-05-14T22:17:47.534Z,25.30
2023-05-14T22:20:15.944Z,25.20
2023-05-14T22:22:44.135Z,25.20
2023-05-14T22:25:13.712Z,25.30
2023-05-14T22:27:41.860Z,25.30
2023-05-14T22:30:10.778Z,25.30
2023-05-14T22:32:39.054Z,25.10
2023-05-14T22:35:07.730Z,25.20
2023-05-14T22:37:35.904Z,25.10
2023-05-14T22:40:05.168Z,25.00
2023-05-14T22:42:34.741Z,25.20
2023-05-14T22:45:03.020Z,25.50
2023-05-14T22:47:31.370Z,25.70
2023-05-14T22:49:59.565Z,25.60
2023-05-14T22:52:27.806Z,26.00
2023-05-14T22:54:55.987Z,26.10
2023-05-14T22:57:24.123Z,26.20
2023-05-14T22:59:53.636Z,26.40
2023-05-14T23:02:21.849Z,26.40
2023-05-14T23:04:50.258Z,26.30
2023-05-14T23:07:18.513Z,26.30
2023-05-14T23:09:46.710Z,26.20
2023-05-14T23:12:14.908Z,26.30
2023-05-14T23:14:43.076Z,26.40
2023-05-14T23:17:12.952Z,26.50
2023-05-14T23:19:41.388Z,26.60
2023-05-14T23:22:09.722Z,26.70
2023-05-14T23:24:37.914Z,26.70
2023-05-14T23:27:06.599Z,26.70
2023-05-14T23:29:34.802Z,26.80
2023-05-14T23:32:03.077Z,26.60
2023-05-14T23:34:32.689Z,26.70
2023-05-14T23:37:00.813Z,26.60
2023-05-14T23:39:29.052Z,26.50
2023-05-14T23:41:57.196Z,26.60
2023-05-14T23:44:25.436Z,26.20
2023-05-14T23:46:53.622Z,26.40
2023-05-14T23:49:21.813Z,26.40
2023-05-14T23:51:51.338Z,26.50
2023-05-14T23:54:19.657Z,26.60
2023-05-14T23:56:47.953Z,26.60
2023-05-14T23:59:16.322Z,26.60
